sensor_id;sensor_type;location;lat;lon;timestamp;P1;durP1;ratioP1;P2;durP2;ratioP2
67456;SDS011;54319;52.038;4.640;2022-11-20T00:01:28;14.20;;;8.98;;
67456;SDS011;54319;52.038;4.640;2022-11-20T00:03:55;13.88;;;8.30;;
67456;SDS011;54319;52.038;4.640;2022-11-20T00:06:24;13.95;;;8.30;;
67456;SDS011;54319;52.038;4.640;2022-11-20T00:08:53;14.43;;;7.55;;
67456;SDS011;54319;52.038;4.640;2022-11-20T00:11:22;12.32;;;8.05;;
67456;SDS011;54319;52.038;4.640;2022-11-20T00:13:51;13.98;;;7.22;;
67456;SDS011;54319;52.038;4.640;2022-11-20T00:16:21;13.77;;;8.52;;
67456;SDS011;54319;52.038;4.640;2022-11-20T00:18:49;11.32;;;7.97;;
67456;SDS011;54319;52.038;4.640;2022-11-20T00:21:17;12.70;;;7.80;;
67456;SDS011;54319;52.038;4.640;2022-11-20T00:23:45;13.88;;;8.85;;
67456;SDS011;54319;52.038;4.640;2022-11-20T00:26:13;10.43;;;7.80;;
67456;SDS011;54319;52.038;4.640;2022-11-20T00:28:42;17.58;;;8.75;;
67456;SDS011;54319;52.038;4.640;2022-11-20T00:31:12;13.63;;;7.70;;
67456;SDS011;54319;52.038;4.640;2022-11-20T00:33:40;14.93;;;8.80;;
67456;SDS011;54319;52.038;4.640;2022-11-20T00:36:08;14.20;;;8.63;;
67456;SDS011;54319;52.038;4.640;2022-11-20T00:38:39;12.32;;;8.38;;
67456;SDS011;54319;52.038;4.640;2022-11-20T00:41:07;14.32;;;8.57;;
67456;SDS011;54319;52.038;4.640;2022-11-20T00:43:35;16.80;;;8.55;;
67456;SDS011;54319;52.038;4.640;2022-11-20T00:46:05;15.23;;;7.75;;
67456;SDS011;54319;52.038;4.640;2022-11-20T00:48:33;13.13;;;7.60;;
67456;SDS011;54319;52.038;4.640;2022-11-20T00:51:01;16.48;;;8.27;;
67456;SDS011;54319;52.038;4.640;2022-11-20T00:53:28;15.18;;;8.60;;
67456;SDS011;54319;52.038;4.640;2022-11-20T00:55:55;14.93;;;9.60;;
67456;SDS011;54319;52.038;4.640;2022-11-20T00:58:24;13.30;;;8.27;;
67456;SDS011;54319;52.038;4.640;2022-11-20T01:00:52;14.30;;;8.18;;
67456;SDS011;54319;52.038;4.640;2022-11-20T01:03:20;16.15;;;8.50;;
67456;SDS011;54319;52.038;4.640;2022-11-20T01:05:47;14.02;;;8.00;;
67456;SDS011;54319;52.038;4.640;2022-11-20T01:08:14;12.43;;;8.23;;
67456;SDS011;54319;52.038;4.640;2022-11-20T01:10:41;13.95;;;8.82;;
67456;SDS011;54319;52.038;4.640;2022-11-20T01:13:09;13.82;;;8.93;;
67456;SDS011;54319;52.038;4.640;2022-11-20T01:16:01;16.83;;;8.80;;
67456;SDS011;54319;52.038;4.640;2022-11-20T01:18:30;13.45;;;8.57;;
67456;SDS011;54319;52.038;4.640;2022-11-20T01:21:00;11.50;;;7.82;;
67456;SDS011;54319;52.038;4.640;2022-11-20T01:23:29;16.50;;;8.88;;
67456;SDS011;54319;52.038;4.640;2022-11-20T01:25:59;14.10;;;8.23;;
67456;SDS011;54319;52.038;4.640;2022-11-20T01:28:27;16.52;;;8.85;;
67456;SDS011;54319;52.038;4.640;2022-11-20T01:30:55;21.15;;;10.60;;
67456;SDS011;54319;52.038;4.640;2022-11-20T01:33:25;16.05;;;8.25;;
67456;SDS011;54319;52.038;4.640;2022-11-20T01:36:02;17.25;;;8.55;;
67456;SDS011;54319;52.038;4.640;2022-11-20T01:38:30;11.95;;;8.13;;
67456;SDS011;54319;52.038;4.640;2022-11-20T01:40:58;15.95;;;9.10;;
67456;SDS011;54319;52.038;4.640;2022-11-20T01:43:24;15.18;;;9.60;;
67456;SDS011;54319;52.038;4.640;2022-11-20T01:46:01;17.45;;;9.18;;
67456;SDS011;54319;52.038;4.640;2022-11-20T01:48:34;13.38;;;8.23;;
67456;SDS011;54319;52.038;4.640;2022-11-20T01:51:09;17.25;;;9.18;;
67456;SDS011;54319;52.038;4.640;2022-11-20T01:53:42;14.02;;;8.70;;
67456;SDS011;54319;52.038;4.640;2022-11-20T01:56:10;12.32;;;7.93;;
67456;SDS011;54319;52.038;4.640;2022-11-20T01:58:48;16.65;;;8.82;;
67456;SDS011;54319;52.038;4.640;2022-11-20T02:01:18;13.82;;;8.23;;
67456;SDS011;54319;52.038;4.640;2022-11-20T02:06:16;12.35;;;8.48;;
67456;SDS011;54319;52.038;4.640;2022-11-20T02:08:48;12.93;;;8.35;;
67456;SDS011;54319;52.038;4.640;2022-11-20T02:11:17;14.88;;;8.88;;
67456;SDS011;54319;52.038;4.640;2022-11-20T02:13:44;18.85;;;9.38;;
67456;SDS011;54319;52.038;4.640;2022-11-20T02:16:12;14.02;;;9.27;;
67456;SDS011;54319;52.038;4.640;2022-11-20T02:18:42;14.00;;;8.85;;
67456;SDS011;54319;52.038;4.640;2022-11-20T02:21:13;11.57;;;7.93;;
67456;SDS011;54319;52.038;4.640;2022-11-20T02:24:04;14.10;;;8.63;;
67456;SDS011;54319;52.038;4.640;2022-11-20T02:26:38;12.70;;;8.23;;
67456;SDS011;54319;52.038;4.640;2022-11-20T02:29:11;11.85;;;7.40;;
67456;SDS011;54319;52.038;4.640;2022-11-20T02:31:43;15.63;;;8.45;;
67456;SDS011;54319;52.038;4.640;2022-11-20T02:34:10;16.57;;;9.40;;
67456;SDS011;54319;52.038;4.640;2022-11-20T02:36:37;16.55;;;9.25;;
67456;SDS011;54319;52.038;4.640;2022-11-20T02:39:08;12.88;;;7.90;;
67456;SDS011;54319;52.038;4.640;2022-11-20T02:41:38;18.80;;;8.57;;
67456;SDS011;54319;52.038;4.640;2022-11-20T02:44:05;13.55;;;9.40;;
67456;SDS011;54319;52.038;4.640;2022-11-20T02:46:32;17.75;;;8.13;;
67456;SDS011;54319;52.038;4.640;2022-11-20T02:49:00;16.88;;;9.50;;
67456;SDS011;54319;52.038;4.640;2022-11-20T02:51:28;12.32;;;8.30;;
67456;SDS011;54319;52.038;4.640;2022-11-20T02:53:55;14.50;;;8.30;;
67456;SDS011;54319;52.038;4.640;2022-11-20T02:56:24;15.90;;;9.43;;
67456;SDS011;54319;52.038;4.640;2022-11-20T02:58:51;16.98;;;8.52;;
67456;SDS011;54319;52.038;4.640;2022-11-20T03:01:19;11.43;;;7.82;;
67456;SDS011;54319;52.038;4.640;2022-11-20T03:03:45;13.63;;;8.90;;
67456;SDS011;54319;52.038;4.640;2022-11-20T03:08:40;12.87;;;8.37;;
67456;SDS011;54319;52.038;4.640;2022-11-20T03:11:07;15.15;;;8.48;;
67456;SDS011;54319;52.038;4.640;2022-11-20T03:13:35;13.98;;;8.45;;
67456;SDS011;54319;52.038;4.640;2022-11-20T03:16:06;11.93;;;7.38;;
67456;SDS011;54319;52.038;4.640;2022-11-20T03:18:35;18.98;;;8.93;;
67456;SDS011;54319;52.038;4.640;2022-11-20T03:21:03;15.02;;;8.75;;
67456;SDS011;54319;52.038;4.640;2022-11-20T03:23:30;14.43;;;8.40;;
67456;SDS011;54319;52.038;4.640;2022-11-20T03:26:11;15.65;;;8.35;;
67456;SDS011;54319;52.038;4.640;2022-11-20T03:28:47;16.20;;;8.63;;
67456;SDS011;54319;52.038;4.640;2022-11-20T03:31:15;13.75;;;8.73;;
67456;SDS011;54319;52.038;4.640;2022-11-20T03:33:43;15.00;;;8.40;;
67456;SDS011;54319;52.038;4.640;2022-11-20T03:36:13;16.77;;;9.68;;
67456;SDS011;54319;52.038;4.640;2022-11-20T03:38:40;15.88;;;8.30;;
67456;SDS011;54319;52.038;4.640;2022-11-20T03:41:13;12.13;;;8.38;;
67456;SDS011;54319;52.038;4.640;2022-11-20T03:43:41;14.43;;;8.70;;
67456;SDS011;54319;52.038;4.640;2022-11-20T03:48:36;15.70;;;7.95;;
67456;SDS011;54319;52.038;4.640;2022-11-20T03:51:07;12.40;;;7.30;;
67456;SDS011;54319;52.038;4.640;2022-11-20T03:53:37;19.95;;;9.32;;
67456;SDS011;54319;52.038;4.640;2022-11-20T03:58:32;16.27;;;7.25;;
67456;SDS011;54319;52.038;4.640;2022-11-20T04:01:05;12.23;;;8.30;;
67456;SDS011;54319;52.038;4.640;2022-11-20T04:03:34;15.60;;;9.70;;
67456;SDS011;54319;52.038;4.640;2022-11-20T04:06:02;15.20;;;8.98;;
67456;SDS011;54319;52.038;4.640;2022-11-20T04:08:31;16.45;;;8.75;;
67456;SDS011;54319;52.038;4.640;2022-11-20T04:11:08;11.80;;;7.60;;
67456;SDS011;54319;52.038;4.640;2022-11-20T04:13:36;16.75;;;9.27;;
67456;SDS011;54319;52.038;4.640;2022-11-20T04:16:04;13.23;;;8.13;;
67456;SDS011;54319;52.038;4.640;2022-11-20T04:18:30;12.13;;;8.33;;
67456;SDS011;54319;52.038;4.640;2022-11-20T04:20:59;11.88;;;8.23;;
67456;SDS011;54319;52.038;4.640;2022-11-20T04:23:26;13.60;;;7.95;;
67456;SDS011;54319;52.038;4.640;2022-11-20T04:25:54;18.33;;;9.18;;
67456;SDS011;54319;52.038;4.640;2022-11-20T04:28:20;17.37;;;8.80;;
67456;SDS011;54319;52.038;4.640;2022-11-20T04:30:47;14.97;;;8.97;;
67456;SDS011;54319;52.038;4.640;2022-11-20T04:33:15;13.60;;;9.57;;
67456;SDS011;54319;52.038;4.640;2022-11-20T04:35:47;15.23;;;8.27;;
67456;SDS011;54319;52.038;4.640;2022-11-20T04:38:18;12.32;;;8.32;;
67456;SDS011;54319;52.038;4.640;2022-11-20T04:40:45;13.57;;;8.43;;
67456;SDS011;54319;52.038;4.640;2022-11-20T04:43:15;16.55;;;8.85;;
67456;SDS011;54319;52.038;4.640;2022-11-20T04:45:42;12.10;;;7.87;;
67456;SDS011;54319;52.038;4.640;2022-11-20T04:48:08;15.40;;;8.90;;
67456;SDS011;54319;52.038;4.640;2022-11-20T04:50:39;19.10;;;9.65;;
67456;SDS011;54319;52.038;4.640;2022-11-20T04:53:18;15.45;;;8.45;;
67456;SDS011;54319;52.038;4.640;2022-11-20T04:55:48;15.02;;;8.50;;
67456;SDS011;54319;52.038;4.640;2022-11-20T04:58:16;15.15;;;8.57;;
67456;SDS011;54319;52.038;4.640;2022-11-20T05:00:43;16.17;;;8.27;;
67456;SDS011;54319;52.038;4.640;2022-11-20T05:03:10;13.77;;;8.85;;
67456;SDS011;54319;52.038;4.640;2022-11-20T05:05:37;14.93;;;8.87;;
67456;SDS011;54319;52.038;4.640;2022-11-20T05:08:04;15.25;;;8.85;;
67456;SDS011;54319;52.038;4.640;2022-11-20T05:10:32;14.73;;;8.70;;
67456;SDS011;54319;52.038;4.640;2022-11-20T05:12:58;12.60;;;8.35;;
67456;SDS011;54319;52.038;4.640;2022-11-20T05:17:55;13.70;;;7.70;;
67456;SDS011;54319;52.038;4.640;2022-11-20T05:20:22;14.55;;;9.15;;
67456;SDS011;54319;52.038;4.640;2022-11-20T05:22:49;14.05;;;7.68;;
67456;SDS011;54319;52.038;4.640;2022-11-20T05:25:16;15.47;;;8.43;;
67456;SDS011;54319;52.038;4.640;2022-11-20T05:27:44;14.55;;;8.95;;
67456;SDS011;54319;52.038;4.640;2022-11-20T05:30:11;15.63;;;9.05;;
67456;SDS011;54319;52.038;4.640;2022-11-20T05:32:40;14.00;;;9.40;;
67456;SDS011;54319;52.038;4.640;2022-11-20T05:35:07;20.85;;;9.63;;
67456;SDS011;54319;52.038;4.640;2022-11-20T05:37:34;16.05;;;9.00;;
67456;SDS011;54319;52.038;4.640;2022-11-20T05:40:01;13.35;;;9.00;;
67456;SDS011;54319;52.038;4.640;2022-11-20T05:42:32;15.55;;;9.27;;
67456;SDS011;54319;52.038;4.640;2022-11-20T05:45:02;15.55;;;9.35;;
67456;SDS011;54319;52.038;4.640;2022-11-20T05:47:31;16.42;;;9.00;;
67456;SDS011;54319;52.038;4.640;2022-11-20T05:49:59;14.95;;;9.18;;
67456;SDS011;54319;52.038;4.640;2022-11-20T05:52:29;14.80;;;9.02;;
67456;SDS011;54319;52.038;4.640;2022-11-20T05:54:55;17.10;;;9.75;;
67456;SDS011;54319;52.038;4.640;2022-11-20T05:57:22;18.73;;;10.35;;
67456;SDS011;54319;52.038;4.640;2022-11-20T05:59:49;15.35;;;9.55;;
67456;SDS011;54319;52.038;4.640;2022-11-20T06:02:17;16.10;;;9.00;;
67456;SDS011;54319;52.038;4.640;2022-11-20T06:04:44;16.13;;;9.77;;
67456;SDS011;54319;52.038;4.640;2022-11-20T06:07:11;17.33;;;10.10;;
67456;SDS011;54319;52.038;4.640;2022-11-20T06:09:37;17.38;;;9.32;;
67456;SDS011;54319;52.038;4.640;2022-11-20T06:14:32;14.40;;;9.25;;
67456;SDS011;54319;52.038;4.640;2022-11-20T06:16:59;15.27;;;9.57;;
67456;SDS011;54319;52.038;4.640;2022-11-20T06:19:27;13.63;;;9.07;;
67456;SDS011;54319;52.038;4.640;2022-11-20T06:21:54;15.48;;;9.43;;
67456;SDS011;54319;52.038;4.640;2022-11-20T06:24:21;22.23;;;9.90;;
67456;SDS011;54319;52.038;4.640;2022-11-20T06:26:50;15.27;;;10.20;;
67456;SDS011;54319;52.038;4.640;2022-11-20T06:29:17;17.63;;;10.48;;
67456;SDS011;54319;52.038;4.640;2022-11-20T06:31:45;15.27;;;9.60;;
67456;SDS011;54319;52.038;4.640;2022-11-20T06:34:11;16.63;;;10.00;;
67456;SDS011;54319;52.038;4.640;2022-11-20T06:36:40;21.17;;;11.00;;
67456;SDS011;54319;52.038;4.640;2022-11-20T06:39:06;18.63;;;9.40;;
67456;SDS011;54319;52.038;4.640;2022-11-20T06:41:33;17.98;;;9.75;;
67456;SDS011;54319;52.038;4.640;2022-11-20T06:44:00;16.85;;;9.73;;
67456;SDS011;54319;52.038;4.640;2022-11-20T06:46:28;17.98;;;10.43;;
67456;SDS011;54319;52.038;4.640;2022-11-20T06:48:55;20.15;;;10.55;;
67456;SDS011;54319;52.038;4.640;2022-11-20T06:51:23;18.52;;;9.65;;
67456;SDS011;54319;52.038;4.640;2022-11-20T06:53:54;16.85;;;10.13;;
67456;SDS011;54319;52.038;4.640;2022-11-20T06:56:21;16.40;;;9.57;;
67456;SDS011;54319;52.038;4.640;2022-11-20T06:58:47;23.60;;;10.70;;
67456;SDS011;54319;52.038;4.640;2022-11-20T07:01:14;16.53;;;10.33;;
67456;SDS011;54319;52.038;4.640;2022-11-20T07:03:41;20.48;;;10.65;;
67456;SDS011;54319;52.038;4.640;2022-11-20T07:06:09;18.77;;;10.45;;
67456;SDS011;54319;52.038;4.640;2022-11-20T07:08:36;18.40;;;9.80;;
67456;SDS011;54319;52.038;4.640;2022-11-20T07:11:06;19.95;;;10.93;;
67456;SDS011;54319;52.038;4.640;2022-11-20T07:13:33;20.30;;;11.48;;
67456;SDS011;54319;52.038;4.640;2022-11-20T07:16:01;22.40;;;11.43;;
67456;SDS011;54319;52.038;4.640;2022-11-20T07:18:29;20.00;;;11.10;;
67456;SDS011;54319;52.038;4.640;2022-11-20T07:20:59;17.48;;;10.23;;
67456;SDS011;54319;52.038;4.640;2022-11-20T07:23:30;18.00;;;10.73;;
67456;SDS011;54319;52.038;4.640;2022-11-20T07:25:58;16.90;;;11.38;;
67456;SDS011;54319;52.038;4.640;2022-11-20T07:28:32;16.30;;;9.98;;
67456;SDS011;54319;52.038;4.640;2022-11-20T07:30:59;18.13;;;11.13;;
67456;SDS011;54319;52.038;4.640;2022-11-20T07:33:25;20.90;;;10.93;;
67456;SDS011;54319;52.038;4.640;2022-11-20T07:35:52;19.23;;;11.35;;
67456;SDS011;54319;52.038;4.640;2022-11-20T07:38:19;18.42;;;11.52;;
67456;SDS011;54319;52.038;4.640;2022-11-20T07:40:46;19.60;;;10.98;;
67456;SDS011;54319;52.038;4.640;2022-11-20T07:43:13;15.07;;;9.55;;
67456;SDS011;54319;52.038;4.640;2022-11-20T07:45:43;17.60;;;10.32;;
67456;SDS011;54319;52.038;4.640;2022-11-20T07:48:09;16.98;;;11.23;;
67456;SDS011;54319;52.038;4.640;2022-11-20T07:50:36;20.48;;;11.52;;
67456;SDS011;54319;52.038;4.640;2022-11-20T07:53:03;17.33;;;10.38;;
67456;SDS011;54319;52.038;4.640;2022-11-20T07:55:31;20.27;;;11.48;;
67456;SDS011;54319;52.038;4.640;2022-11-20T07:57:58;18.13;;;10.90;;
67456;SDS011;54319;52.038;4.640;2022-11-20T08:00:25;23.75;;;11.95;;
67456;SDS011;54319;52.038;4.640;2022-11-20T08:02:54;20.63;;;11.02;;
67456;SDS011;54319;52.038;4.640;2022-11-20T08:05:22;17.30;;;10.73;;
67456;SDS011;54319;52.038;4.640;2022-11-20T08:07:48;19.98;;;11.48;;
67456;SDS011;54319;52.038;4.640;2022-11-20T08:10:16;23.17;;;11.77;;
67456;SDS011;54319;52.038;4.640;2022-11-20T08:12:44;22.08;;;11.65;;
67456;SDS011;54319;52.038;4.640;2022-11-20T08:15:29;18.55;;;10.88;;
67456;SDS011;54319;52.038;4.640;2022-11-20T08:18:05;18.23;;;10.82;;
67456;SDS011;54319;52.038;4.640;2022-11-20T08:20:35;16.52;;;10.43;;
67456;SDS011;54319;52.038;4.640;2022-11-20T08:23:03;18.07;;;10.30;;
67456;SDS011;54319;52.038;4.640;2022-11-20T08:25:31;16.00;;;10.38;;
67456;SDS011;54319;52.038;4.640;2022-11-20T08:27:59;18.95;;;10.73;;
67456;SDS011;54319;52.038;4.640;2022-11-20T08:32:54;14.63;;;9.63;;
67456;SDS011;54319;52.038;4.640;2022-11-20T08:35:28;19.02;;;11.00;;
67456;SDS011;54319;52.038;4.640;2022-11-20T08:37:58;17.98;;;9.90;;
67456;SDS011;54319;52.038;4.640;2022-11-20T08:40:26;16.70;;;10.32;;
67456;SDS011;54319;52.038;4.640;2022-11-20T08:42:52;17.27;;;11.15;;
67456;SDS011;54319;52.038;4.640;2022-11-20T08:45:19;16.63;;;11.23;;
67456;SDS011;54319;52.038;4.640;2022-11-20T08:47:46;20.90;;;10.77;;
67456;SDS011;54319;52.038;4.640;2022-11-20T08:50:16;20.17;;;11.23;;
67456;SDS011;54319;52.038;4.640;2022-11-20T08:52:46;18.88;;;11.48;;
67456;SDS011;54319;52.038;4.640;2022-11-20T08:55:13;17.70;;;10.70;;
67456;SDS011;54319;52.038;4.640;2022-11-20T08:57:40;19.77;;;11.23;;
67456;SDS011;54319;52.038;4.640;2022-11-20T09:00:07;17.77;;;10.98;;
67456;SDS011;54319;52.038;4.640;2022-11-20T09:02:38;20.75;;;12.25;;
67456;SDS011;54319;52.038;4.640;2022-11-20T09:05:05;17.58;;;11.45;;
67456;SDS011;54319;52.038;4.640;2022-11-20T09:07:41;18.70;;;12.15;;
67456;SDS011;54319;52.038;4.640;2022-11-20T09:10:09;18.08;;;11.35;;
67456;SDS011;54319;52.038;4.640;2022-11-20T09:12:38;17.27;;;10.85;;
67456;SDS011;54319;52.038;4.640;2022-11-20T09:15:07;18.40;;;11.23;;
67456;SDS011;54319;52.038;4.640;2022-11-20T09:17:35;17.52;;;10.70;;
67456;SDS011;54319;52.038;4.640;2022-11-20T09:20:02;20.38;;;11.70;;
67456;SDS011;54319;52.038;4.640;2022-11-20T09:22:30;18.20;;;11.13;;
67456;SDS011;54319;52.038;4.640;2022-11-20T09:24:56;19.23;;;11.45;;
67456;SDS011;54319;52.038;4.640;2022-11-20T09:27:26;17.48;;;10.82;;
67456;SDS011;54319;52.038;4.640;2022-11-20T09:29:53;17.98;;;10.25;;
67456;SDS011;54319;52.038;4.640;2022-11-20T09:32:20;17.25;;;10.93;;
67456;SDS011;54319;52.038;4.640;2022-11-20T09:34:49;17.17;;;10.75;;
67456;SDS011;54319;52.038;4.640;2022-11-20T09:37:16;19.40;;;11.90;;
67456;SDS011;54319;52.038;4.640;2022-11-20T09:39:43;17.65;;;11.32;;
67456;SDS011;54319;52.038;4.640;2022-11-20T09:42:19;18.90;;;11.18;;
67456;SDS011;54319;52.038;4.640;2022-11-20T09:45:02;19.52;;;11.98;;
67456;SDS011;54319;52.038;4.640;2022-11-20T09:47:42;21.00;;;11.43;;
67456;SDS011;54319;52.038;4.640;2022-11-20T09:50:25;16.67;;;10.82;;
67456;SDS011;54319;52.038;4.640;2022-11-20T09:53:02;18.98;;;10.10;;
67456;SDS011;54319;52.038;4.640;2022-11-20T09:55:37;17.58;;;10.90;;
67456;SDS011;54319;52.038;4.640;2022-11-20T09:58:07;19.05;;;11.60;;
67456;SDS011;54319;52.038;4.640;2022-11-20T10:00:44;24.10;;;11.82;;
67456;SDS011;54319;52.038;4.640;2022-11-20T10:03:13;17.40;;;10.95;;
67456;SDS011;54319;52.038;4.640;2022-11-20T10:05:44;18.13;;;11.45;;
67456;SDS011;54319;52.038;4.640;2022-11-20T10:08:16;17.55;;;10.57;;
67456;SDS011;54319;52.038;4.640;2022-11-20T10:10:49;20.80;;;12.07;;
67456;SDS011;54319;52.038;4.640;2022-11-20T10:13:27;18.80;;;11.88;;
67456;SDS011;54319;52.038;4.640;2022-11-20T10:16:11;22.05;;;11.35;;
67456;SDS011;54319;52.038;4.640;2022-11-20T10:18:54;19.13;;;11.70;;
67456;SDS011;54319;52.038;4.640;2022-11-20T10:21:34;20.83;;;12.15;;
67456;SDS011;54319;52.038;4.640;2022-11-20T10:30:07;19.05;;;11.68;;
67456;SDS011;54319;52.038;4.640;2022-11-20T10:32:38;20.90;;;12.23;;
67456;SDS011;54319;52.038;4.640;2022-11-20T10:35:09;22.50;;;12.20;;
67456;SDS011;54319;52.038;4.640;2022-11-20T10:37:46;21.08;;;12.20;;
67456;SDS011;54319;52.038;4.640;2022-11-20T10:40:19;22.55;;;12.77;;
67456;SDS011;54319;52.038;4.640;2022-11-20T10:42:51;20.50;;;12.90;;
67456;SDS011;54319;52.038;4.640;2022-11-20T10:45:31;27.20;;;13.82;;
67456;SDS011;54319;52.038;4.640;2022-11-20T10:48:09;22.67;;;13.18;;
67456;SDS011;54319;52.038;4.640;2022-11-20T10:50:40;22.88;;;12.80;;
67456;SDS011;54319;52.038;4.640;2022-11-20T10:53:17;23.20;;;12.57;;
67456;SDS011;54319;52.038;4.640;2022-11-20T10:56:00;21.67;;;13.07;;
67456;SDS011;54319;52.038;4.640;2022-11-20T10:58:34;22.50;;;12.97;;
67456;SDS011;54319;52.038;4.640;2022-11-20T11:01:14;22.52;;;13.73;;
67456;SDS011;54319;52.038;4.640;2022-11-20T11:03:43;24.98;;;12.25;;
67456;SDS011;54319;52.038;4.640;2022-11-20T11:06:14;25.38;;;13.82;;
67456;SDS011;54319;52.038;4.640;2022-11-20T11:08:49;26.95;;;13.85;;
67456;SDS011;54319;52.038;4.640;2022-11-20T11:11:21;25.20;;;13.48;;
67456;SDS011;54319;52.038;4.640;2022-11-20T11:13:49;24.95;;;13.82;;
67456;SDS011;54319;52.038;4.640;2022-11-20T11:16:21;26.08;;;14.25;;
67456;SDS011;54319;52.038;4.640;2022-11-20T11:18:49;27.60;;;14.65;;
67456;SDS011;54319;52.038;4.640;2022-11-20T11:21:21;29.27;;;14.20;;
67456;SDS011;54319;52.038;4.640;2022-11-20T11:23:59;24.30;;;13.75;;
67456;SDS011;54319;52.038;4.640;2022-11-20T11:26:29;24.70;;;14.23;;
67456;SDS011;54319;52.038;4.640;2022-11-20T11:28:56;27.08;;;14.10;;
67456;SDS011;54319;52.038;4.640;2022-11-20T11:31:27;26.45;;;14.77;;
67456;SDS011;54319;52.038;4.640;2022-11-20T11:34:03;25.45;;;15.13;;
67456;SDS011;54319;52.038;4.640;2022-11-20T11:36:32;25.58;;;13.85;;
67456;SDS011;54319;52.038;4.640;2022-11-20T11:38:59;25.15;;;14.77;;
67456;SDS011;54319;52.038;4.640;2022-11-20T11:41:30;26.52;;;13.60;;
67456;SDS011;54319;52.038;4.640;2022-11-20T11:44:00;26.48;;;14.35;;
67456;SDS011;54319;52.038;4.640;2022-11-20T11:46:58;24.60;;;13.65;;
67456;SDS011;54319;52.038;4.640;2022-11-20T11:49:26;25.35;;;13.70;;
67456;SDS011;54319;52.038;4.640;2022-11-20T11:51:58;24.50;;;14.68;;
67456;SDS011;54319;52.038;4.640;2022-11-20T11:57:05;23.70;;;13.73;;
67456;SDS011;54319;52.038;4.640;2022-11-20T11:59:41;25.58;;;13.88;;
67456;SDS011;54319;52.038;4.640;2022-11-20T12:02:24;23.50;;;13.48;;
67456;SDS011;54319;52.038;4.640;2022-11-20T12:04:57;27.63;;;14.45;;
67456;SDS011;54319;52.038;4.640;2022-11-20T12:07:33;25.88;;;14.68;;
67456;SDS011;54319;52.038;4.640;2022-11-20T12:10:12;28.27;;;14.10;;
67456;SDS011;54319;52.038;4.640;2022-11-20T12:12:44;24.38;;;14.30;;
67456;SDS011;54319;52.038;4.640;2022-11-20T12:15:17;27.02;;;14.38;;
67456;SDS011;54319;52.038;4.640;2022-11-20T12:17:54;27.60;;;15.20;;
67456;SDS011;54319;52.038;4.640;2022-11-20T12:20:20;28.85;;;15.10;;
67456;SDS011;54319;52.038;4.640;2022-11-20T12:22:52;26.30;;;15.18;;
67456;SDS011;54319;52.038;4.640;2022-11-20T12:25:24;25.83;;;14.07;;
67456;SDS011;54319;52.038;4.640;2022-11-20T12:31:14;28.38;;;14.88;;
67456;SDS011;54319;52.038;4.640;2022-11-20T12:34:15;37.97;;;16.35;;
67456;SDS011;54319;52.038;4.640;2022-11-20T12:36:56;32.05;;;16.95;;
67456;SDS011;54319;52.038;4.640;2022-11-20T12:39:34;29.98;;;15.55;;
67456;SDS011;54319;52.038;4.640;2022-11-20T12:45:17;30.42;;;16.27;;
67456;SDS011;54319;52.038;4.640;2022-11-20T12:47:54;31.42;;;15.07;;
67456;SDS011;54319;52.038;4.640;2022-11-20T12:50:43;29.70;;;15.32;;
67456;SDS011;54319;52.038;4.640;2022-11-20T12:53:22;32.13;;;16.67;;
67456;SDS011;54319;52.038;4.640;2022-11-20T12:55:56;28.50;;;15.00;;
67456;SDS011;54319;52.038;4.640;2022-11-20T12:58:33;34.40;;;16.73;;
67456;SDS011;54319;52.038;4.640;2022-11-20T13:01:09;32.70;;;16.98;;
67456;SDS011;54319;52.038;4.640;2022-11-20T13:04:06;27.70;;;15.82;;
67456;SDS011;54319;52.038;4.640;2022-11-20T13:06:40;33.40;;;17.27;;
67456;SDS011;54319;52.038;4.640;2022-11-20T13:09:08;34.00;;;16.95;;
67456;SDS011;54319;52.038;4.640;2022-11-20T13:11:44;34.90;;;16.85;;
67456;SDS011;54319;52.038;4.640;2022-11-20T13:14:24;35.90;;;16.58;;
67456;SDS011;54319;52.038;4.640;2022-11-20T13:17:00;36.95;;;16.85;;
67456;SDS011;54319;52.038;4.640;2022-11-20T13:19:35;36.83;;;16.70;;
67456;SDS011;54319;52.038;4.640;2022-11-20T13:22:05;39.00;;;17.73;;
67456;SDS011;54319;52.038;4.640;2022-11-20T13:24:34;32.95;;;17.20;;
67456;SDS011;54319;52.038;4.640;2022-11-20T13:27:03;34.53;;;16.65;;
67456;SDS011;54319;52.038;4.640;2022-11-20T13:29:32;37.85;;;18.13;;
67456;SDS011;54319;52.038;4.640;2022-11-20T13:32:07;35.85;;;18.10;;
67456;SDS011;54319;52.038;4.640;2022-11-20T13:34:50;31.13;;;16.10;;
67456;SDS011;54319;52.038;4.640;2022-11-20T13:37:27;32.88;;;17.20;;
67456;SDS011;54319;52.038;4.640;2022-11-20T13:40:12;30.23;;;15.85;;
67456;SDS011;54319;52.038;4.640;2022-11-20T13:42:43;34.00;;;16.40;;
67456;SDS011;54319;52.038;4.640;2022-11-20T13:45:20;33.80;;;16.38;;
67456;SDS011;54319;52.038;4.640;2022-11-20T13:47:50;34.80;;;17.33;;
67456;SDS011;54319;52.038;4.640;2022-11-20T13:50:21;35.05;;;18.10;;
67456;SDS011;54319;52.038;4.640;2022-11-20T13:53:11;41.93;;;19.87;;
67456;SDS011;54319;52.038;4.640;2022-11-20T13:55:54;37.13;;;18.40;;
67456;SDS011;54319;52.038;4.640;2022-11-20T13:58:31;42.05;;;18.73;;
67456;SDS011;54319;52.038;4.640;2022-11-20T14:01:21;36.95;;;19.02;;
67456;SDS011;54319;52.038;4.640;2022-11-20T14:03:56;41.15;;;19.80;;
67456;SDS011;54319;52.038;4.640;2022-11-20T14:06:28;42.10;;;20.05;;
67456;SDS011;54319;52.038;4.640;2022-11-20T14:08:58;43.22;;;18.75;;
67456;SDS011;54319;52.038;4.640;2022-11-20T14:11:27;45.22;;;18.65;;
67456;SDS011;54319;52.038;4.640;2022-11-20T14:13:56;41.08;;;18.88;;
67456;SDS011;54319;52.038;4.640;2022-11-20T14:16:27;43.00;;;18.77;;
67456;SDS011;54319;52.038;4.640;2022-11-20T14:18:55;44.90;;;19.55;;
67456;SDS011;54319;52.038;4.640;2022-11-20T14:21:24;41.55;;;19.20;;
67456;SDS011;54319;52.038;4.640;2022-11-20T14:23:53;38.15;;;18.40;;
67456;SDS011;54319;52.038;4.640;2022-11-20T14:26:23;45.20;;;19.92;;
67456;SDS011;54319;52.038;4.640;2022-11-20T14:28:50;38.70;;;18.85;;
67456;SDS011;54319;52.038;4.640;2022-11-20T14:31:21;41.70;;;18.85;;
67456;SDS011;54319;52.038;4.640;2022-11-20T14:33:51;44.00;;;18.67;;
67456;SDS011;54319;52.038;4.640;2022-11-20T14:36:20;38.97;;;18.55;;
67456;SDS011;54319;52.038;4.640;2022-11-20T14:38:48;42.75;;;19.67;;
67456;SDS011;54319;52.038;4.640;2022-11-20T14:41:17;48.15;;;20.13;;
67456;SDS011;54319;52.038;4.640;2022-11-20T14:43:49;48.97;;;19.38;;
67456;SDS011;54319;52.038;4.640;2022-11-20T14:46:23;49.45;;;20.15;;
67456;SDS011;54319;52.038;4.640;2022-11-20T14:48:51;42.58;;;19.13;;
67456;SDS011;54319;52.038;4.640;2022-11-20T14:51:29;43.58;;;19.17;;
67456;SDS011;54319;52.038;4.640;2022-11-20T14:54:08;48.95;;;20.60;;
67456;SDS011;54319;52.038;4.640;2022-11-20T14:56:37;45.15;;;20.42;;
67456;SDS011;54319;52.038;4.640;2022-11-20T14:59:05;45.35;;;21.23;;
67456;SDS011;54319;52.038;4.640;2022-11-20T15:01:36;47.78;;;21.15;;
67456;SDS011;54319;52.038;4.640;2022-11-20T15:04:05;50.63;;;22.13;;
67456;SDS011;54319;52.038;4.640;2022-11-20T15:06:34;49.55;;;22.42;;
67456;SDS011;54319;52.038;4.640;2022-11-20T15:09:02;50.53;;;21.92;;
67456;SDS011;54319;52.038;4.640;2022-11-20T15:11:30;48.83;;;22.58;;
67456;SDS011;54319;52.038;4.640;2022-11-20T15:14:02;45.50;;;20.92;;
67456;SDS011;54319;52.038;4.640;2022-11-20T15:16:32;48.33;;;20.77;;
67456;SDS011;54319;52.038;4.640;2022-11-20T15:19:02;39.67;;;20.13;;
67456;SDS011;54319;52.038;4.640;2022-11-20T15:21:36;47.28;;;19.73;;